Airfield :
LOGIN :

Register | Disclaimer

   EN    FR    IT 

 










Legend :    VFR   Marginal VFR   IFR   Intensive IFR   Very Intensive IFR
Visi :
Ceiling :
>= 8 km
>= 3000ft
5 to 8 km
1000 to 3000 ft
1500m to 5 km
500 to 1000 ft
800 to 1500m
200 to 500 ft
< 800m
< 200 ft
Symbols :   Thunderstorms  Fog  Heavy snow  Heavy precipitations  Wind > 20 kt
SIGMETs :     Misc.  Thunderstorms  Icing  Turbulence  Mountain Waves  Volcanic Ashes






- Airport Elevation : 526 ft
- IATA code : LTN


EGGW - London Luton

CURRENT METAR :
  • 101920Z AUTO 06010KT 9999 NCD 04/M01 Q1013

EXPIRED METARs :
  • 101850Z 06007KT CAVOK 04/M01 Q1013
  • 101820Z 06009KT CAVOK 05/M01 Q1012
  • 101750Z 06010KT 9999 SCT048 05/00 Q1012
  • 101720Z AUTO 03008KT 9999 OVC044 05/02 Q1012
  • 101650Z AUTO 01007KT 9999 FEW032 OVC039 05/02 Q1012

TAF TAF EGGW
Valid from the 10 at 18:00 until the 11 at 18:00 UTC


101706Z 1018/1118 06010KT 9999 SCT045
BECMG 1021/1024 36006KT
PROB30
TEMPO 1112/1118 8000 SHRA
ATIS : +44 1582 395 204



MET'MAP, your aeronautical weather chart ! - Copyright ORBIFLY December 2007 - Disclaimer

ORBIFLY MET'MAP TEAM :

Programming & Development : Alexandra Zaïnal
Concept & original design : Baudouin d'Aumeries
Assistance for programming : Marc-Olivier Méhu
Technical & hardware support : Manuel Goepfert

Contact : metmap@orbifly.com




SOURCES & CREDITS :

   NOAA